sensor_id;sensor_type;location;lat;lon;timestamp;P1;durP1;ratioP1;P2;durP2;ratioP2
11962;SDS011;62678;52.130;5.584;2023-09-12T00:02:02;98.90;;;61.92;;
11962;SDS011;62678;52.130;5.584;2023-09-12T00:04:30;103.32;;;62.47;;
11962;SDS011;62678;52.130;5.584;2023-09-12T00:06:57;99.93;;;62.22;;
11962;SDS011;62678;52.130;5.584;2023-09-12T00:09:24;96.07;;;59.33;;
11962;SDS011;62678;52.130;5.584;2023-09-12T00:11:53;99.03;;;60.30;;
11962;SDS011;62678;52.130;5.584;2023-09-12T00:14:20;106.60;;;63.05;;
11962;SDS011;62678;52.130;5.584;2023-09-12T00:16:49;109.65;;;64.50;;
11962;SDS011;62678;52.130;5.584;2023-09-12T00:19:17;111.60;;;64.18;;
11962;SDS011;62678;52.130;5.584;2023-09-12T00:21:44;111.60;;;63.47;;
11962;SDS011;62678;52.130;5.584;2023-09-12T00:24:12;113.35;;;65.43;;
11962;SDS011;62678;52.130;5.584;2023-09-12T00:26:39;108.18;;;64.53;;
11962;SDS011;62678;52.130;5.584;2023-09-12T00:29:06;114.82;;;65.97;;
11962;SDS011;62678;52.130;5.584;2023-09-12T00:31:33;111.57;;;62.80;;
11962;SDS011;62678;52.130;5.584;2023-09-12T00:34:01;115.97;;;66.53;;
11962;SDS011;62678;52.130;5.584;2023-09-12T00:36:28;112.72;;;66.00;;
11962;SDS011;62678;52.130;5.584;2023-09-12T00:38:56;114.53;;;66.25;;
11962;SDS011;62678;52.130;5.584;2023-09-12T00:41:23;124.22;;;68.35;;
11962;SDS011;62678;52.130;5.584;2023-09-12T00:43:50;128.82;;;69.80;;
11962;SDS011;62678;52.130;5.584;2023-09-12T00:46:18;127.93;;;71.13;;
11962;SDS011;62678;52.130;5.584;2023-09-12T00:48:48;140.65;;;73.97;;
11962;SDS011;62678;52.130;5.584;2023-09-12T00:51:18;134.00;;;69.47;;
11962;SDS011;62678;52.130;5.584;2023-09-12T00:53:46;126.65;;;68.32;;
11962;SDS011;62678;52.130;5.584;2023-09-12T00:56:13;134.68;;;71.57;;
11962;SDS011;62678;52.130;5.584;2023-09-12T00:58:41;124.70;;;70.95;;
11962;SDS011;62678;52.130;5.584;2023-09-12T01:01:08;126.57;;;71.13;;
11962;SDS011;62678;52.130;5.584;2023-09-12T01:03:35;137.30;;;74.00;;
11962;SDS011;62678;52.130;5.584;2023-09-12T01:06:02;139.50;;;74.50;;
11962;SDS011;62678;52.130;5.584;2023-09-12T01:08:32;139.13;;;74.47;;
11962;SDS011;62678;52.130;5.584;2023-09-12T01:11:02;138.68;;;73.13;;
11962;SDS011;62678;52.130;5.584;2023-09-12T01:13:30;133.25;;;72.15;;
11962;SDS011;62678;52.130;5.584;2023-09-12T01:15:57;146.05;;;77.18;;
11962;SDS011;62678;52.130;5.584;2023-09-12T01:18:26;141.32;;;74.65;;
11962;SDS011;62678;52.130;5.584;2023-09-12T01:20:58;144.73;;;75.47;;
11962;SDS011;62678;52.130;5.584;2023-09-12T01:23:59;134.82;;;73.22;;
11962;SDS011;62678;52.130;5.584;2023-09-12T01:26:41;129.70;;;72.80;;
11962;SDS011;62678;52.130;5.584;2023-09-12T01:29:16;144.13;;;78.60;;
11962;SDS011;62678;52.130;5.584;2023-09-12T01:31:47;152.32;;;81.25;;
11962;SDS011;62678;52.130;5.584;2023-09-12T01:34:15;157.48;;;82.25;;
11962;SDS011;62678;52.130;5.584;2023-09-12T01:36:44;164.57;;;83.78;;
11962;SDS011;62678;52.130;5.584;2023-09-12T01:39:11;159.27;;;83.15;;
11962;SDS011;62678;52.130;5.584;2023-09-12T01:41:39;159.35;;;80.57;;
11962;SDS011;62678;52.130;5.584;2023-09-12T01:44:08;157.00;;;80.35;;
11962;SDS011;62678;52.130;5.584;2023-09-12T01:46:39;149.57;;;78.60;;
11962;SDS011;62678;52.130;5.584;2023-09-12T01:49:06;147.73;;;76.97;;
11962;SDS011;62678;52.130;5.584;2023-09-12T01:51:38;142.75;;;75.65;;
11962;SDS011;62678;52.130;5.584;2023-09-12T01:54:08;142.68;;;73.82;;
11962;SDS011;62678;52.130;5.584;2023-09-12T01:56:36;136.50;;;74.47;;
11962;SDS011;62678;52.130;5.584;2023-09-12T01:59:04;144.18;;;74.60;;
11962;SDS011;62678;52.130;5.584;2023-09-12T02:01:32;135.77;;;73.40;;
11962;SDS011;62678;52.130;5.584;2023-09-12T02:04:01;151.77;;;72.97;;
11962;SDS011;62678;52.130;5.584;2023-09-12T02:06:33;136.30;;;74.43;;
11962;SDS011;62678;52.130;5.584;2023-09-12T02:09:01;150.75;;;76.55;;
11962;SDS011;62678;52.130;5.584;2023-09-12T02:11:28;132.35;;;72.47;;
11962;SDS011;62678;52.130;5.584;2023-09-12T02:13:55;125.78;;;71.60;;
11962;SDS011;62678;52.130;5.584;2023-09-12T02:16:22;138.93;;;73.47;;
11962;SDS011;62678;52.130;5.584;2023-09-12T02:18:49;138.32;;;75.90;;
11962;SDS011;62678;52.130;5.584;2023-09-12T02:21:18;133.65;;;73.25;;
11962;SDS011;62678;52.130;5.584;2023-09-12T02:23:45;129.93;;;70.90;;
11962;SDS011;62678;52.130;5.584;2023-09-12T02:26:12;157.90;;;78.80;;
11962;SDS011;62678;52.130;5.584;2023-09-12T02:28:39;145.48;;;75.80;;
11962;SDS011;62678;52.130;5.584;2023-09-12T02:31:09;142.40;;;74.80;;
11962;SDS011;62678;52.130;5.584;2023-09-12T02:33:37;139.90;;;74.35;;
11962;SDS011;62678;52.130;5.584;2023-09-12T02:36:04;166.43;;;79.65;;
11962;SDS011;62678;52.130;5.584;2023-09-12T02:38:33;160.02;;;77.35;;
11962;SDS011;62678;52.130;5.584;2023-09-12T02:41:00;167.77;;;82.07;;
11962;SDS011;62678;52.130;5.584;2023-09-12T02:43:28;184.45;;;82.00;;
11962;SDS011;62678;52.130;5.584;2023-09-12T02:45:55;179.10;;;79.95;;
11962;SDS011;62678;52.130;5.584;2023-09-12T02:48:22;217.77;;;83.45;;
11962;SDS011;62678;52.130;5.584;2023-09-12T02:50:49;248.35;;;80.63;;
11962;SDS011;62678;52.130;5.584;2023-09-12T02:53:16;408.85;;;85.43;;
11962;SDS011;62678;52.130;5.584;2023-09-12T02:55:47;404.38;;;90.45;;
11962;SDS011;62678;52.130;5.584;2023-09-12T02:58:14;270.45;;;80.53;;
11962;SDS011;62678;52.130;5.584;2023-09-12T03:00:41;265.13;;;82.57;;
11962;SDS011;62678;52.130;5.584;2023-09-12T03:03:08;170.75;;;73.55;;
11962;SDS011;62678;52.130;5.584;2023-09-12T03:05:35;146.95;;;73.30;;
11962;SDS011;62678;52.130;5.584;2023-09-12T03:08:02;178.70;;;73.50;;
11962;SDS011;62678;52.130;5.584;2023-09-12T03:10:30;167.80;;;73.63;;
11962;SDS011;62678;52.130;5.584;2023-09-12T03:12:59;248.75;;;72.75;;
11962;SDS011;62678;52.130;5.584;2023-09-12T03:15:26;217.70;;;73.43;;
11962;SDS011;62678;52.130;5.584;2023-09-12T03:17:53;199.52;;;71.53;;
11962;SDS011;62678;52.130;5.584;2023-09-12T03:20:20;364.38;;;80.00;;
11962;SDS011;62678;52.130;5.584;2023-09-12T03:22:47;213.38;;;70.88;;
11962;SDS011;62678;52.130;5.584;2023-09-12T03:25:14;188.25;;;66.85;;
11962;SDS011;62678;52.130;5.584;2023-09-12T03:27:43;163.15;;;65.20;;
11962;SDS011;62678;52.130;5.584;2023-09-12T03:30:11;187.52;;;64.32;;
11962;SDS011;62678;52.130;5.584;2023-09-12T03:32:39;131.65;;;61.85;;
11962;SDS011;62678;52.130;5.584;2023-09-12T03:35:07;184.65;;;62.17;;
11962;SDS011;62678;52.130;5.584;2023-09-12T03:37:35;111.05;;;58.60;;
11962;SDS011;62678;52.130;5.584;2023-09-12T03:40:05;135.20;;;56.13;;
11962;SDS011;62678;52.130;5.584;2023-09-12T03:42:33;107.82;;;55.05;;
11962;SDS011;62678;52.130;5.584;2023-09-12T03:45:02;102.22;;;56.83;;
11962;SDS011;62678;52.130;5.584;2023-09-12T03:47:31;113.40;;;58.28;;
11962;SDS011;62678;52.130;5.584;2023-09-12T03:49:59;103.60;;;54.70;;
11962;SDS011;62678;52.130;5.584;2023-09-12T03:52:28;104.28;;;57.30;;
11962;SDS011;62678;52.130;5.584;2023-09-12T03:54:56;154.57;;;59.63;;
11962;SDS011;62678;52.130;5.584;2023-09-12T03:57:23;87.75;;;56.08;;
11962;SDS011;62678;52.130;5.584;2023-09-12T03:59:50;89.63;;;57.65;;
11962;SDS011;62678;52.130;5.584;2023-09-12T04:02:18;84.63;;;56.10;;
11962;SDS011;62678;52.130;5.584;2023-09-12T04:04:46;82.03;;;56.60;;
11962;SDS011;62678;52.130;5.584;2023-09-12T04:07:13;83.82;;;56.10;;
11962;SDS011;62678;52.130;5.584;2023-09-12T04:09:40;89.03;;;58.45;;
11962;SDS011;62678;52.130;5.584;2023-09-12T04:12:08;86.00;;;58.17;;
11962;SDS011;62678;52.130;5.584;2023-09-12T04:14:35;83.57;;;58.50;;
11962;SDS011;62678;52.130;5.584;2023-09-12T04:17:02;83.43;;;56.15;;
11962;SDS011;62678;52.130;5.584;2023-09-12T04:19:30;83.70;;;57.80;;
11962;SDS011;62678;52.130;5.584;2023-09-12T04:21:58;84.10;;;56.78;;
11962;SDS011;62678;52.130;5.584;2023-09-12T04:24:26;85.03;;;56.92;;
11962;SDS011;62678;52.130;5.584;2023-09-12T04:26:53;88.15;;;58.45;;
11962;SDS011;62678;52.130;5.584;2023-09-12T04:29:20;86.22;;;57.38;;
11962;SDS011;62678;52.130;5.584;2023-09-12T04:31:47;84.82;;;56.88;;
11962;SDS011;62678;52.130;5.584;2023-09-12T04:34:15;85.63;;;56.28;;
11962;SDS011;62678;52.130;5.584;2023-09-12T04:36:42;92.25;;;58.85;;
11962;SDS011;62678;52.130;5.584;2023-09-12T04:39:13;99.05;;;60.53;;
11962;SDS011;62678;52.130;5.584;2023-09-12T04:41:40;100.90;;;60.03;;
11962;SDS011;62678;52.130;5.584;2023-09-12T04:44:07;110.45;;;61.88;;
11962;SDS011;62678;52.130;5.584;2023-09-12T04:46:34;114.20;;;61.65;;
11962;SDS011;62678;52.130;5.584;2023-09-12T04:49:01;104.45;;;60.15;;
11962;SDS011;62678;52.130;5.584;2023-09-12T04:51:28;129.00;;;69.75;;
11962;SDS011;62678;52.130;5.584;2023-09-12T04:53:55;127.70;;;66.28;;
11962;SDS011;62678;52.130;5.584;2023-09-12T04:56:24;125.63;;;65.80;;
11962;SDS011;62678;52.130;5.584;2023-09-12T04:58:51;129.10;;;67.07;;
11962;SDS011;62678;52.130;5.584;2023-09-12T05:01:19;126.20;;;65.20;;
11962;SDS011;62678;52.130;5.584;2023-09-12T05:03:46;129.48;;;65.45;;
11962;SDS011;62678;52.130;5.584;2023-09-12T05:06:13;149.20;;;71.32;;
11962;SDS011;62678;52.130;5.584;2023-09-12T05:08:40;137.10;;;69.35;;
11962;SDS011;62678;52.130;5.584;2023-09-12T05:11:07;148.98;;;70.40;;
11962;SDS011;62678;52.130;5.584;2023-09-12T05:13:37;149.45;;;70.63;;
11962;SDS011;62678;52.130;5.584;2023-09-12T05:16:04;156.20;;;73.20;;
11962;SDS011;62678;52.130;5.584;2023-09-12T05:18:32;161.35;;;73.80;;
11962;SDS011;62678;52.130;5.584;2023-09-12T05:20:59;136.35;;;66.85;;
11962;SDS011;62678;52.130;5.584;2023-09-12T05:23:26;125.63;;;62.60;;
11962;SDS011;62678;52.130;5.584;2023-09-12T05:25:53;151.57;;;66.30;;
11962;SDS011;62678;52.130;5.584;2023-09-12T05:28:20;134.95;;;65.25;;
11962;SDS011;62678;52.130;5.584;2023-09-12T05:30:48;148.27;;;67.25;;
11962;SDS011;62678;52.130;5.584;2023-09-12T05:33:18;158.27;;;69.07;;
11962;SDS011;62678;52.130;5.584;2023-09-12T05:35:45;152.23;;;70.78;;
11962;SDS011;62678;52.130;5.584;2023-09-12T05:38:12;154.10;;;66.72;;
11962;SDS011;62678;52.130;5.584;2023-09-12T05:40:39;165.02;;;66.55;;
11962;SDS011;62678;52.130;5.584;2023-09-12T05:43:06;147.43;;;68.85;;
11962;SDS011;62678;52.130;5.584;2023-09-12T05:45:35;148.02;;;66.45;;
11962;SDS011;62678;52.130;5.584;2023-09-12T05:48:04;150.60;;;67.82;;
11962;SDS011;62678;52.130;5.584;2023-09-12T05:50:35;156.43;;;69.90;;
11962;SDS011;62678;52.130;5.584;2023-09-12T05:53:02;158.43;;;71.05;;
11962;SDS011;62678;52.130;5.584;2023-09-12T05:55:30;161.40;;;71.45;;
11962;SDS011;62678;52.130;5.584;2023-09-12T05:57:57;155.45;;;69.32;;
11962;SDS011;62678;52.130;5.584;2023-09-12T06:00:24;139.15;;;68.10;;
11962;SDS011;62678;52.130;5.584;2023-09-12T06:02:51;142.13;;;67.47;;
11962;SDS011;62678;52.130;5.584;2023-09-12T06:05:19;143.23;;;67.35;;
11962;SDS011;62678;52.130;5.584;2023-09-12T06:07:46;138.35;;;66.82;;
11962;SDS011;62678;52.130;5.584;2023-09-12T06:10:13;126.68;;;64.40;;
11962;SDS011;62678;52.130;5.584;2023-09-12T06:12:40;138.48;;;64.70;;
11962;SDS011;62678;52.130;5.584;2023-09-12T06:15:08;134.20;;;65.85;;
11962;SDS011;62678;52.130;5.584;2023-09-12T06:17:37;132.25;;;64.82;;
11962;SDS011;62678;52.130;5.584;2023-09-12T06:20:05;120.55;;;62.03;;
11962;SDS011;62678;52.130;5.584;2023-09-12T06:22:34;118.50;;;62.13;;
11962;SDS011;62678;52.130;5.584;2023-09-12T06:25:02;108.55;;;59.22;;
11962;SDS011;62678;52.130;5.584;2023-09-12T06:27:31;107.78;;;58.30;;
11962;SDS011;62678;52.130;5.584;2023-09-12T06:29:58;109.55;;;60.45;;
11962;SDS011;62678;52.130;5.584;2023-09-12T06:32:25;112.85;;;60.58;;
11962;SDS011;62678;52.130;5.584;2023-09-12T06:34:52;112.82;;;60.38;;
11962;SDS011;62678;52.130;5.584;2023-09-12T06:37:22;115.50;;;62.83;;
11962;SDS011;62678;52.130;5.584;2023-09-12T06:39:53;107.47;;;61.53;;
11962;SDS011;62678;52.130;5.584;2023-09-12T06:42:20;111.95;;;59.63;;
11962;SDS011;62678;52.130;5.584;2023-09-12T06:44:48;104.35;;;57.22;;
11962;SDS011;62678;52.130;5.584;2023-09-12T06:47:15;99.97;;;57.75;;
11962;SDS011;62678;52.130;5.584;2023-09-12T06:49:42;101.10;;;57.63;;
11962;SDS011;62678;52.130;5.584;2023-09-12T06:52:09;97.10;;;56.83;;
11962;SDS011;62678;52.130;5.584;2023-09-12T06:54:37;98.60;;;56.75;;
11962;SDS011;62678;52.130;5.584;2023-09-12T06:57:06;101.55;;;57.78;;
11962;SDS011;62678;52.130;5.584;2023-09-12T06:59:33;99.07;;;57.13;;
11962;SDS011;62678;52.130;5.584;2023-09-12T07:02:00;100.03;;;57.30;;
11962;SDS011;62678;52.130;5.584;2023-09-12T07:04:27;99.07;;;56.60;;
11962;SDS011;62678;52.130;5.584;2023-09-12T07:06:54;90.05;;;57.00;;
11962;SDS011;62678;52.130;5.584;2023-09-12T07:09:21;98.53;;;55.85;;
11962;SDS011;62678;52.130;5.584;2023-09-12T07:11:51;90.53;;;55.25;;
11962;SDS011;62678;52.130;5.584;2023-09-12T07:14:19;91.03;;;55.22;;
11962;SDS011;62678;52.130;5.584;2023-09-12T07:16:46;84.72;;;54.05;;
11962;SDS011;62678;52.130;5.584;2023-09-12T07:19:13;84.53;;;53.47;;
11962;SDS011;62678;52.130;5.584;2023-09-12T07:21:41;85.03;;;52.88;;
11962;SDS011;62678;52.130;5.584;2023-09-12T07:24:08;77.85;;;51.20;;
11962;SDS011;62678;52.130;5.584;2023-09-12T07:26:35;79.75;;;50.85;;
11962;SDS011;62678;52.130;5.584;2023-09-12T07:29:04;83.90;;;51.17;;
11962;SDS011;62678;52.130;5.584;2023-09-12T07:31:32;81.65;;;52.83;;
11962;SDS011;62678;52.130;5.584;2023-09-12T07:33:59;78.70;;;50.58;;
11962;SDS011;62678;52.130;5.584;2023-09-12T07:36:27;79.47;;;51.45;;
11962;SDS011;62678;52.130;5.584;2023-09-12T07:38:54;74.50;;;49.90;;
11962;SDS011;62678;52.130;5.584;2023-09-12T07:41:21;84.32;;;50.88;;
11962;SDS011;62678;52.130;5.584;2023-09-12T07:43:48;80.10;;;52.25;;
11962;SDS011;62678;52.130;5.584;2023-09-12T07:46:15;80.22;;;52.00;;
11962;SDS011;62678;52.130;5.584;2023-09-12T07:48:43;76.90;;;51.40;;
11962;SDS011;62678;52.130;5.584;2023-09-12T07:51:11;82.40;;;51.80;;
11962;SDS011;62678;52.130;5.584;2023-09-12T07:53:39;79.45;;;51.60;;
11962;SDS011;62678;52.130;5.584;2023-09-12T07:56:07;78.93;;;50.30;;
11962;SDS011;62678;52.130;5.584;2023-09-12T07:58:35;85.25;;;51.63;;
11962;SDS011;62678;52.130;5.584;2023-09-12T08:01:04;75.88;;;52.10;;
11962;SDS011;62678;52.130;5.584;2023-09-12T08:03:32;74.55;;;50.13;;
11962;SDS011;62678;52.130;5.584;2023-09-12T08:06:01;75.53;;;50.35;;
11962;SDS011;62678;52.130;5.584;2023-09-12T08:08:28;75.20;;;49.42;;
11962;SDS011;62678;52.130;5.584;2023-09-12T08:10:55;77.38;;;48.75;;
11962;SDS011;62678;52.130;5.584;2023-09-12T08:13:22;73.82;;;48.60;;
11962;SDS011;62678;52.130;5.584;2023-09-12T08:15:52;73.30;;;48.90;;
11962;SDS011;62678;52.130;5.584;2023-09-12T08:18:19;71.25;;;45.25;;
11962;SDS011;62678;52.130;5.584;2023-09-12T08:20:46;61.63;;;43.55;;
11962;SDS011;62678;52.130;5.584;2023-09-12T08:23:14;61.28;;;43.67;;
11962;SDS011;62678;52.130;5.584;2023-09-12T08:25:41;65.50;;;43.28;;
11962;SDS011;62678;52.130;5.584;2023-09-12T08:28:08;57.58;;;41.00;;
11962;SDS011;62678;52.130;5.584;2023-09-12T08:30:35;59.95;;;40.45;;
11962;SDS011;62678;52.130;5.584;2023-09-12T08:33:02;59.17;;;39.58;;
11962;SDS011;62678;52.130;5.584;2023-09-12T08:35:31;63.30;;;41.45;;
11962;SDS011;62678;52.130;5.584;2023-09-12T08:37:58;52.35;;;35.17;;
11962;SDS011;62678;52.130;5.584;2023-09-12T08:40:27;47.05;;;32.83;;
11962;SDS011;62678;52.130;5.584;2023-09-12T08:42:55;45.60;;;32.83;;
11962;SDS011;62678;52.130;5.584;2023-09-12T08:45:24;43.40;;;30.98;;
11962;SDS011;62678;52.130;5.584;2023-09-12T08:47:51;42.15;;;29.65;;
11962;SDS011;62678;52.130;5.584;2023-09-12T08:50:20;35.88;;;25.27;;
11962;SDS011;62678;52.130;5.584;2023-09-12T08:52:48;32.10;;;22.52;;
11962;SDS011;62678;52.130;5.584;2023-09-12T08:55:16;34.90;;;24.08;;
11962;SDS011;62678;52.130;5.584;2023-09-12T08:57:45;30.42;;;23.00;;
11962;SDS011;62678;52.130;5.584;2023-09-12T09:00:16;34.33;;;24.55;;
11962;SDS011;62678;52.130;5.584;2023-09-12T09:02:44;34.65;;;23.98;;
11962;SDS011;62678;52.130;5.584;2023-09-12T09:05:12;34.38;;;24.48;;
11962;SDS011;62678;52.130;5.584;2023-09-12T09:07:40;37.13;;;24.02;;
11962;SDS011;62678;52.130;5.584;2023-09-12T09:10:09;35.65;;;24.13;;
11962;SDS011;62678;52.130;5.584;2023-09-12T09:12:42;30.60;;;22.40;;
11962;SDS011;62678;52.130;5.584;2023-09-12T09:15:21;29.95;;;22.77;;
11962;SDS011;62678;52.130;5.584;2023-09-12T09:17:49;30.27;;;23.30;;
11962;SDS011;62678;52.130;5.584;2023-09-12T09:20:21;33.83;;;22.08;;
11962;SDS011;62678;52.130;5.584;2023-09-12T09:22:56;30.27;;;22.05;;
11962;SDS011;62678;52.130;5.584;2023-09-12T09:25:24;33.47;;;23.40;;
11962;SDS011;62678;52.130;5.584;2023-09-12T09:27:52;29.92;;;23.08;;
11962;SDS011;62678;52.130;5.584;2023-09-12T09:30:25;34.78;;;25.70;;
11962;SDS011;62678;52.130;5.584;2023-09-12T09:33:09;34.55;;;27.30;;
11962;SDS011;62678;52.130;5.584;2023-09-12T09:35:38;35.60;;;28.17;;
11962;SDS011;62678;52.130;5.584;2023-09-12T09:38:08;41.67;;;30.30;;
11962;SDS011;62678;52.130;5.584;2023-09-12T09:40:35;41.78;;;32.38;;
11962;SDS011;62678;52.130;5.584;2023-09-12T09:43:04;40.78;;;30.33;;
11962;SDS011;62678;52.130;5.584;2023-09-12T09:45:31;42.95;;;31.70;;
11962;SDS011;62678;52.130;5.584;2023-09-12T09:47:58;41.58;;;30.60;;
11962;SDS011;62678;52.130;5.584;2023-09-12T09:50:33;37.90;;;29.73;;
11962;SDS011;62678;52.130;5.584;2023-09-12T09:53:02;36.65;;;29.27;;
11962;SDS011;62678;52.130;5.584;2023-09-12T09:55:33;36.70;;;27.50;;
11962;SDS011;62678;52.130;5.584;2023-09-12T09:58:00;42.05;;;29.08;;
11962;SDS011;62678;52.130;5.584;2023-09-12T10:00:29;41.17;;;29.38;;
11962;SDS011;62678;52.130;5.584;2023-09-12T10:03:00;43.05;;;31.23;;
11962;SDS011;62678;52.130;5.584;2023-09-12T10:05:30;37.72;;;28.83;;
11962;SDS011;62678;52.130;5.584;2023-09-12T10:07:59;40.53;;;30.60;;
11962;SDS011;62678;52.130;5.584;2023-09-12T10:10:28;41.15;;;29.05;;
11962;SDS011;62678;52.130;5.584;2023-09-12T10:12:56;43.55;;;31.05;;
11962;SDS011;62678;52.130;5.584;2023-09-12T10:15:25;43.15;;;31.23;;
11962;SDS011;62678;52.130;5.584;2023-09-12T10:17:57;37.35;;;27.73;;
11962;SDS011;62678;52.130;5.584;2023-09-12T10:20:30;35.83;;;27.10;;
11962;SDS011;62678;52.130;5.584;2023-09-12T10:23:03;39.38;;;29.55;;
11962;SDS011;62678;52.130;5.584;2023-09-12T10:25:37;36.40;;;27.02;;
11962;SDS011;62678;52.130;5.584;2023-09-12T10:28:06;35.03;;;28.05;;
11962;SDS011;62678;52.130;5.584;2023-09-12T10:30:35;40.95;;;30.65;;
11962;SDS011;62678;52.130;5.584;2023-09-12T10:33:02;41.17;;;30.90;;
11962;SDS011;62678;52.130;5.584;2023-09-12T10:35:31;35.97;;;27.50;;
11962;SDS011;62678;52.130;5.584;2023-09-12T10:37:59;37.45;;;29.33;;
11962;SDS011;62678;52.130;5.584;2023-09-12T10:40:29;34.33;;;27.40;;
11962;SDS011;62678;52.130;5.584;2023-09-12T10:42:57;33.50;;;26.38;;
11962;SDS011;62678;52.130;5.584;2023-09-12T10:45:28;36.80;;;27.30;;
11962;SDS011;62678;52.130;5.584;2023-09-12T10:47:59;37.92;;;27.40;;
11962;SDS011;62678;52.130;5.584;2023-09-12T10:50:26;29.35;;;22.38;;
11962;SDS011;62678;52.130;5.584;2023-09-12T10:52:54;34.53;;;24.95;;
11962;SDS011;62678;52.130;5.584;2023-09-12T10:55:21;32.63;;;24.95;;
11962;SDS011;62678;52.130;5.584;2023-09-12T10:58:00;38.47;;;27.50;;
11962;SDS011;62678;52.130;5.584;2023-09-12T11:00:28;36.65;;;28.95;;
11962;SDS011;62678;52.130;5.584;2023-09-12T11:02:59;43.30;;;33.50;;
11962;SDS011;62678;52.130;5.584;2023-09-12T11:05:50;46.53;;;35.15;;
11962;SDS011;62678;52.130;5.584;2023-09-12T11:08:19;45.28;;;33.95;;
11962;SDS011;62678;52.130;5.584;2023-09-12T11:10:53;40.78;;;33.28;;
11962;SDS011;62678;52.130;5.584;2023-09-12T11:13:45;40.63;;;31.67;;
11962;SDS011;62678;52.130;5.584;2023-09-12T11:16:12;44.03;;;32.33;;
11962;SDS011;62678;52.130;5.584;2023-09-12T11:21:44;46.85;;;33.75;;
11962;SDS011;62678;52.130;5.584;2023-09-12T11:24:11;41.10;;;30.63;;
11962;SDS011;62678;52.130;5.584;2023-09-12T11:26:55;39.63;;;30.30;;
11962;SDS011;62678;52.130;5.584;2023-09-12T11:29:26;36.85;;;28.00;;
11962;SDS011;62678;52.130;5.584;2023-09-12T11:31:54;39.28;;;27.83;;
11962;SDS011;62678;52.130;5.584;2023-09-12T11:34:28;36.65;;;27.25;;
11962;SDS011;62678;52.130;5.584;2023-09-12T11:36:57;35.13;;;25.90;;
11962;SDS011;62678;52.130;5.584;2023-09-12T11:39:28;34.08;;;26.63;;
11962;SDS011;62678;52.130;5.584;2023-09-12T11:41:56;34.42;;;24.13;;
11962;SDS011;62678;52.130;5.584;2023-09-12T11:44:23;35.17;;;23.92;;
11962;SDS011;62678;52.130;5.584;2023-09-12T11:46:51;25.38;;;18.25;;
11962;SDS011;62678;52.130;5.584;2023-09-12T11:49:29;22.05;;;14.68;;
11962;SDS011;62678;52.130;5.584;2023-09-12T11:52:02;20.70;;;15.50;;
11962;SDS011;62678;52.130;5.584;2023-09-12T11:54:31;23.13;;;18.40;;
11962;SDS011;62678;52.130;5.584;2023-09-12T11:56:58;17.42;;;13.45;;
11962;SDS011;62678;52.130;5.584;2023-09-12T11:59:25;21.13;;;15.98;;
11962;SDS011;62678;52.130;5.584;2023-09-12T12:01:53;26.75;;;17.80;;
11962;SDS011;62678;52.130;5.584;2023-09-12T12:04:21;22.85;;;16.17;;
11962;SDS011;62678;52.130;5.584;2023-09-12T12:06:50;18.65;;;13.57;;
11962;SDS011;62678;52.130;5.584;2023-09-12T12:09:18;16.98;;;12.73;;
11962;SDS011;62678;52.130;5.584;2023-09-12T12:11:47;18.55;;;13.70;;
11962;SDS011;62678;52.130;5.584;2023-09-12T12:14:15;20.38;;;15.18;;
11962;SDS011;62678;52.130;5.584;2023-09-12T12:16:44;17.23;;;15.38;;
11962;SDS011;62678;52.130;5.584;2023-09-12T12:19:12;22.15;;;16.48;;
11962;SDS011;62678;52.130;5.584;2023-09-12T12:21:40;24.45;;;18.27;;
11962;SDS011;62678;52.130;5.584;2023-09-12T12:24:09;22.38;;;17.35;;
11962;SDS011;62678;52.130;5.584;2023-09-12T12:26:40;20.35;;;16.80;;
11962;SDS011;62678;52.130;5.584;2023-09-12T12:29:08;21.13;;;15.23;;
11962;SDS011;62678;52.130;5.584;2023-09-12T12:31:39;21.58;;;17.95;;
11962;SDS011;62678;52.130;5.584;2023-09-12T12:34:06;21.10;;;17.20;;
11962;SDS011;62678;52.130;5.584;2023-09-12T12:36:33;24.98;;;19.73;;
11962;SDS011;62678;52.130;5.584;2023-09-12T12:39:11;24.10;;;19.67;;
11962;SDS011;62678;52.130;5.584;2023-09-12T12:41:39;21.88;;;19.08;;
11962;SDS011;62678;52.130;5.584;2023-09-12T12:44:07;27.55;;;19.95;;
11962;SDS011;62678;52.130;5.584;2023-09-12T12:46:47;24.60;;;18.83;;
11962;SDS011;62678;52.130;5.584;2023-09-12T12:49:14;21.05;;;16.80;;
11962;SDS011;62678;52.130;5.584;2023-09-12T12:51:42;18.95;;;16.48;;
11962;SDS011;62678;52.130;5.584;2023-09-12T12:54:10;19.58;;;15.05;;
11962;SDS011;62678;52.130;5.584;2023-09-12T12:56:37;16.80;;;13.52;;
11962;SDS011;62678;52.130;5.584;2023-09-12T12:59:05;15.07;;;12.30;;
11962;SDS011;62678;52.130;5.584;2023-09-12T13:01:34;13.75;;;11.80;;
11962;SDS011;62678;52.130;5.584;2023-09-12T13:04:04;15.93;;;10.80;;
11962;SDS011;62678;52.130;5.584;2023-09-12T13:06:32;13.90;;;10.88;;
11962;SDS011;62678;52.130;5.584;2023-09-12T13:09:01;15.52;;;10.52;;
11962;SDS011;62678;52.130;5.584;2023-09-12T13:11:32;10.82;;;7.40;;
11962;SDS011;62678;52.130;5.584;2023-09-12T13:13:59;9.80;;;6.65;;
11962;SDS011;62678;52.130;5.584;2023-09-12T13:16:27;11.75;;;9.18;;
11962;SDS011;62678;52.130;5.584;2023-09-12T13:18:55;10.40;;;9.02;;
11962;SDS011;62678;52.130;5.584;2023-09-12T13:21:22;12.35;;;8.93;;
11962;SDS011;62678;52.130;5.584;2023-09-12T13:23:48;10.52;;;7.97;;
11962;SDS011;62678;52.130;5.584;2023-09-12T13:26:16;9.93;;;8.32;;
11962;SDS011;62678;52.130;5.584;2023-09-12T13:28:44;9.43;;;6.93;;
11962;SDS011;62678;52.130;5.584;2023-09-12T13:31:11;8.60;;;6.28;;
11962;SDS011;62678;52.130;5.584;2023-09-12T13:33:38;7.70;;;5.65;;
11962;SDS011;62678;52.130;5.584;2023-09-12T13:36:07;12.80;;;6.15;;
11962;SDS011;62678;52.130;5.584;2023-09-12T13:38:34;10.07;;;7.38;;
11962;SDS011;62678;52.130;5.584;2023-09-12T13:41:01;9.52;;;7.60;;
11962;SDS011;62678;52.130;5.584;2023-09-12T13:43:29;10.98;;;9.80;;
11962;SDS011;62678;52.130;5.584;2023-09-12T13:45:58;14.60;;;11.25;;
11962;SDS011;62678;52.130;5.584;2023-09-12T13:48:25;12.45;;;10.57;;
11962;SDS011;62678;52.130;5.584;2023-09-12T13:50:52;13.45;;;10.50;;
11962;SDS011;62678;52.130;5.584;2023-09-12T13:53:19;12.18;;;10.98;;
11962;SDS011;62678;52.130;5.584;2023-09-12T13:55:47;15.52;;;11.60;;
11962;SDS011;62678;52.130;5.584;2023-09-12T13:58:14;13.50;;;10.98;;
11962;SDS011;62678;52.130;5.584;2023-09-12T14:00:41;12.68;;;9.15;;
11962;SDS011;62678;52.130;5.584;2023-09-12T14:03:10;12.48;;;8.75;;
11962;SDS011;62678;52.130;5.584;2023-09-12T14:05:37;11.30;;;9.95;;
11962;SDS011;62678;52.130;5.584;2023-09-12T14:08:04;14.32;;;9.70;;
11962;SDS011;62678;52.130;5.584;2023-09-12T14:10:31;12.25;;;10.48;;
11962;SDS011;62678;52.130;5.584;2023-09-12T14:12:58;16.67;;;12.63;;
11962;SDS011;62678;52.130;5.584;2023-09-12T14:15:25;15.32;;;11.77;;
11962;SDS011;62678;52.130;5.584;2023-09-12T14:17:52;15.30;;;12.82;;
11962;SDS011;62678;52.130;5.584;2023-09-12T14:20:21;19.23;;;12.93;;
11962;SDS011;62678;52.130;5.584;2023-09-12T14:22:48;20.67;;;13.95;;
11962;SDS011;62678;52.130;5.584;2023-09-12T14:25:15;20.38;;;13.25;;
11962;SDS011;62678;52.130;5.584;2023-09-12T14:27:42;19.60;;;15.23;;